Decoded Metar for LFBM (MONT-DE-MARSAN in FRANCE) (IATA:N/A) | Meteo·Mobile Aviation Weather
aviador You're here:

LFBM Decoded Metar

MONT-DE-MARSAN in FRANCE
Report Time2019-07-16 09:30:00
UTC Time2019-07-16 10:02:19
Flight Rules vfr VFR
WindVRB at 03 kt
Visibility9999 m
Phenomena:N/A
Clouds:N/A
Expected CloudBase > 3,600 ft AGL from Temp-Dew spread
CeilingNone
Temp24°C (ISA +9)
Dew Point15°C (57% RH)
QNH1018 hPa
Density Alt1,358 ft
Elevation207 ft
Report Wrong Elevation
Raw Report
LFBM 160930Z AUTO VRB03KT CAVOK 24/15 Q1018 NOSIG=

Extra information for LFBM:More info

Metar Taf Metar & Taf Last 4 Metars F.Rules Stats Wind Profile Meteogram Temp Stats Airport Information Weather charts Add Link Nearby VenuesMetar ALERT Operation Metar Decoded Social comments